createdAt,value
2019-03-15T00:01:58.939Z,8.82
2019-03-15T00:04:28.443Z,8.61
2019-03-15T00:06:57.944Z,8.74
2019-03-15T00:09:27.445Z,8.81
2019-03-15T00:11:56.957Z,8.81
2019-03-15T00:14:26.461Z,9.01
2019-03-15T00:16:55.968Z,9.17
2019-03-15T00:19:25.477Z,9.15
2019-03-15T00:21:54.998Z,8.93
2019-03-15T00:24:24.511Z,9.14
2019-03-15T00:26:54.032Z,9.29
2019-03-15T00:29:23.554Z,9.03
2019-03-15T00:31:53.156Z,8.87
2019-03-15T00:34:22.735Z,8.68
2019-03-15T00:36:52.234Z,8.69
2019-03-15T00:39:21.960Z,8.71
2019-03-15T00:41:51.686Z,8.75
2019-03-15T00:44:21.207Z,8.76
2019-03-15T00:46:50.698Z,8.92
2019-03-15T00:49:20.337Z,8.92
2019-03-15T00:51:49.812Z,8.97
2019-03-15T00:54:19.315Z,9.15
2019-03-15T00:56:48.810Z,8.92
2019-03-15T00:59:18.407Z,8.92
2019-03-15T01:01:47.918Z,9.03
2019-03-15T01:04:17.433Z,8.98
2019-03-15T01:06:47.922Z,9.07
2019-03-15T01:09:17.409Z,8.93
2019-03-15T01:11:46.929Z,8.84
2019-03-15T01:14:16.421Z,9.06
2019-03-15T01:16:45.941Z,8.92
2019-03-15T01:19:15.441Z,8.84
2019-03-15T01:21:44.941Z,9.11
2019-03-15T01:24:14.443Z,9.00
2019-03-15T01:26:44.096Z,9.01
2019-03-15T01:29:13.517Z,9.09
2019-03-15T01:31:43.028Z,9.01
2019-03-15T01:34:12.528Z,9.27
2019-03-15T01:36:42.028Z,9.08
2019-03-15T01:39:12.498Z,8.99
2019-03-15T01:41:42.015Z,9.16
2019-03-15T01:44:11.530Z,9.02
2019-03-15T01:46:41.047Z,8.99
2019-03-15T01:49:10.566Z,9.23
2019-03-15T01:51:40.088Z,9.32
2019-03-15T01:54:09.609Z,9.36
2019-03-15T01:56:39.133Z,9.39
2019-03-15T01:59:08.654Z,9.23
2019-03-15T02:01:38.198Z,9.34
2019-03-15T02:04:07.726Z,9.32
2019-03-15T02:06:37.257Z,9.55
2019-03-15T02:09:09.310Z,9.56
2019-03-15T02:11:38.355Z,9.41
2019-03-15T02:14:07.881Z,9.07
2019-03-15T02:16:37.406Z,9.26
2019-03-15T02:19:06.928Z,9.33
2019-03-15T02:21:36.526Z,9.53
2019-03-15T02:24:06.106Z,9.53
2019-03-15T02:26:35.680Z,9.34
2019-03-15T02:29:05.249Z,9.55
2019-03-15T02:31:34.745Z,9.34
2019-03-15T02:34:04.277Z,9.52
2019-03-15T02:36:33.754Z,9.56
2019-03-15T02:39:04.333Z,9.57
2019-03-15T02:41:33.825Z,9.53
2019-03-15T02:44:03.399Z,9.40
2019-03-15T02:46:32.902Z,9.40
2019-03-15T02:49:02.398Z,9.17
2019-03-15T02:51:31.909Z,9.51
2019-03-15T02:54:01.438Z,9.38
2019-03-15T02:56:30.952Z,9.51
2019-03-15T02:59:00.473Z,9.44
2019-03-15T03:01:30.003Z,9.50
2019-03-15T03:03:59.522Z,9.28
2019-03-15T03:06:29.141Z,9.32
2019-03-15T03:08:58.647Z,9.19
2019-03-15T03:11:28.164Z,9.05
2019-03-15T03:13:57.681Z,9.22
2019-03-15T03:16:27.203Z,9.30
2019-03-15T03:18:56.729Z,8.72
2019-03-15T03:21:26.246Z,9.35
2019-03-15T03:23:57.331Z,9.32
2019-03-15T03:26:28.240Z,9.47
2019-03-15T03:28:57.767Z,9.31
2019-03-15T03:31:27.289Z,9.37
2019-03-15T03:33:56.803Z,9.46
2019-03-15T03:36:26.323Z,9.43
2019-03-15T03:38:55.851Z,9.30
2019-03-15T03:41:25.418Z,9.24
2019-03-15T03:43:54.895Z,9.12
2019-03-15T03:46:24.409Z,9.13
2019-03-15T03:48:53.920Z,9.07
2019-03-15T03:51:23.417Z,9.28
2019-03-15T03:53:52.924Z,9.26
2019-03-15T03:56:22.419Z,9.14
2019-03-15T03:58:51.927Z,9.34
2019-03-15T04:01:21.427Z,9.30
2019-03-15T04:03:50.938Z,9.45
2019-03-15T04:06:20.440Z,9.19
2019-03-15T04:08:49.955Z,9.29
2019-03-15T04:11:19.508Z,9.24
2019-03-15T04:13:49.939Z,9.25
2019-03-15T04:16:19.433Z,9.21
2019-03-15T04:18:48.951Z,9.39
2019-03-15T04:21:18.461Z,9.31
2019-03-15T04:23:48.967Z,9.31
2019-03-15T04:26:18.471Z,9.29
2019-03-15T04:28:47.974Z,9.42
2019-03-15T04:31:17.491Z,9.54
2019-03-15T04:33:47.102Z,9.74
2019-03-15T04:36:16.583Z,9.59
2019-03-15T04:38:46.101Z,9.52
2019-03-15T04:41:15.656Z,9.57
2019-03-15T04:43:45.154Z,9.59
2019-03-15T04:46:14.676Z,9.47
2019-03-15T04:48:44.213Z,9.40
2019-03-15T04:51:13.750Z,9.50
2019-03-15T04:53:43.272Z,9.30
2019-03-15T04:56:12.792Z,9.48
2019-03-15T04:58:42.297Z,9.39
2019-03-15T05:01:11.827Z,9.45
2019-03-15T05:03:41.342Z,9.47
2019-03-15T05:06:10.860Z,9.42
2019-03-15T05:08:40.369Z,9.51
2019-03-15T05:11:09.894Z,9.47
2019-03-15T05:13:40.299Z,9.60
2019-03-15T05:16:09.810Z,9.71
2019-03-15T05:18:39.318Z,9.67
2019-03-15T05:21:08.825Z,9.55
2019-03-15T05:23:38.342Z,9.54
2019-03-15T05:26:08.583Z,9.60
2019-03-15T05:28:38.092Z,9.49
2019-03-15T05:31:07.600Z,9.46
2019-03-15T05:33:37.107Z,9.46
2019-03-15T05:36:06.628Z,9.43
2019-03-15T05:38:36.147Z,9.37
2019-03-15T05:41:05.708Z,9.40
2019-03-15T05:43:36.692Z,9.48
2019-03-15T05:46:06.204Z,9.46
2019-03-15T05:48:35.711Z,9.49
2019-03-15T05:51:06.185Z,9.52
2019-03-15T05:53:35.686Z,9.47
2019-03-15T05:56:05.279Z,9.38
2019-03-15T05:58:34.800Z,9.49
2019-03-15T06:01:04.286Z,9.41
2019-03-15T06:03:47.464Z,9.35
2019-03-15T06:06:05.106Z,9.37
2019-03-15T06:08:34.645Z,9.55
2019-03-15T06:11:04.178Z,9.55
2019-03-15T06:13:33.702Z,9.51
2019-03-15T06:16:03.260Z,9.51
2019-03-15T06:18:32.795Z,9.33
2019-03-15T06:21:02.313Z,9.42
2019-03-15T06:23:31.850Z,9.39
2019-03-15T06:26:01.371Z,9.37
2019-03-15T06:28:30.898Z,9.44
2019-03-15T06:31:00.492Z,9.42
2019-03-15T06:33:30.096Z,9.50
2019-03-15T06:35:59.591Z,9.40
2019-03-15T06:38:29.126Z,9.53
2019-03-15T06:40:58.635Z,9.56
2019-03-15T06:43:28.155Z,9.54
2019-03-15T06:45:57.669Z,9.68
2019-03-15T06:48:28.247Z,9.63
2019-03-15T06:50:57.810Z,9.64
2019-03-15T06:53:27.493Z,9.41
2019-03-15T06:55:57.012Z,9.64
2019-03-15T06:58:26.529Z,9.78
2019-03-15T07:00:57.343Z,9.76
2019-03-15T07:03:27.032Z,9.82
2019-03-15T07:05:56.543Z,9.87
2019-03-15T07:08:27.023Z,9.91
2019-03-15T07:10:56.549Z,9.67
2019-03-15T07:13:26.294Z,9.86
2019-03-15T07:15:55.816Z,9.66
2019-03-15T07:18:26.335Z,9.93
2019-03-15T07:20:55.851Z,9.97
2019-03-15T07:23:25.371Z,9.96
2019-03-15T07:25:54.891Z,10.11
2019-03-15T07:28:24.407Z,10.02
2019-03-15T07:30:53.928Z,10.01
2019-03-15T07:33:23.451Z,9.87
2019-03-15T07:35:52.963Z,9.81
2019-03-15T07:38:22.465Z,9.78
2019-03-15T07:40:51.964Z,9.81
2019-03-15T07:43:21.550Z,9.76
2019-03-15T07:45:51.063Z,9.88
2019-03-15T07:48:22.651Z,9.87
2019-03-15T07:50:51.780Z,9.95
2019-03-15T07:53:21.290Z,9.94
2019-03-15T07:55:50.796Z,9.97
2019-03-15T07:58:20.294Z,9.95
2019-03-15T08:00:49.803Z,9.93
2019-03-15T08:03:19.306Z,9.89
2019-03-15T08:05:48.810Z,9.92
2019-03-15T08:08:18.317Z,10.02
2019-03-15T08:10:47.880Z,10.12
2019-03-15T08:13:17.381Z,10.14
2019-03-15T08:15:46.897Z,10.16
2019-03-15T08:18:17.390Z,10.15
2019-03-15T08:20:46.907Z,9.93
2019-03-15T08:23:16.452Z,10.06
2019-03-15T08:25:45.971Z,10.09
2019-03-15T08:28:15.488Z,10.04
2019-03-15T08:30:45.016Z,10.09
2019-03-15T08:33:14.545Z,10.07
2019-03-15T08:35:44.073Z,10.24
2019-03-15T08:38:14.563Z,10.10
2019-03-15T08:40:44.107Z,9.98
2019-03-15T08:43:13.703Z,10.16
2019-03-15T08:45:43.235Z,10.23
2019-03-15T08:48:12.862Z,10.07
2019-03-15T08:50:42.379Z,10.21
2019-03-15T08:53:11.895Z,10.24
2019-03-15T08:55:41.442Z,10.18
2019-03-15T08:58:15.832Z,10.06
2019-03-15T09:00:42.159Z,10.10
2019-03-15T09:03:11.667Z,9.99
2019-03-15T09:05:41.191Z,10.09
2019-03-15T09:08:10.716Z,10.18
2019-03-15T09:10:40.236Z,10.25
2019-03-15T09:13:09.782Z,10.18
2019-03-15T09:15:39.276Z,10.34
2019-03-15T09:18:08.799Z,10.25
2019-03-15T09:20:38.334Z,10.43
2019-03-15T09:23:07.878Z,10.37
2019-03-15T09:25:37.406Z,10.40
2019-03-15T09:28:06.922Z,10.39
2019-03-15T09:30:36.468Z,10.47
2019-03-15T09:33:06.163Z,10.53
2019-03-15T09:35:35.680Z,10.44
2019-03-15T09:38:05.191Z,10.41
2019-03-15T09:40:34.716Z,10.34
2019-03-15T09:43:04.237Z,10.30
2019-03-15T09:45:33.747Z,10.27
2019-03-15T09:48:03.266Z,10.31
2019-03-15T09:50:39.986Z,10.28
2019-03-15T09:53:05.989Z,10.29
2019-03-15T09:55:35.315Z,10.40
2019-03-15T09:58:04.827Z,10.27
2019-03-15T10:00:34.345Z,10.23
2019-03-15T10:03:03.859Z,10.14
2019-03-15T10:05:33.367Z,10.20
2019-03-15T10:08:02.885Z,10.13
2019-03-15T10:10:33.376Z,10.05
2019-03-15T10:13:06.291Z,10.04
2019-03-15T10:15:34.139Z,10.00
2019-03-15T10:18:03.630Z,10.09
2019-03-15T10:20:33.147Z,10.21
2019-03-15T10:23:05.807Z,10.14
2019-03-15T10:25:46.323Z,10.05
2019-03-15T10:28:05.209Z,10.05
2019-03-15T10:30:34.709Z,10.17
2019-03-15T10:33:04.379Z,10.12
2019-03-15T10:35:33.888Z,10.11
2019-03-15T10:38:03.412Z,10.24
2019-03-15T10:40:32.984Z,10.37
2019-03-15T10:43:02.447Z,10.40
2019-03-15T10:45:31.981Z,10.32
2019-03-15T10:48:01.516Z,10.50
2019-03-15T10:50:31.359Z,10.48
2019-03-15T10:53:00.895Z,10.51
2019-03-15T10:55:30.513Z,10.55
2019-03-15T10:58:00.047Z,10.54
2019-03-15T11:00:29.642Z,10.71
2019-03-15T11:02:59.177Z,10.68
2019-03-15T11:05:28.690Z,10.52
2019-03-15T11:07:58.216Z,10.68
2019-03-15T11:10:27.738Z,10.67
2019-03-15T11:12:57.469Z,10.85
2019-03-15T11:15:26.995Z,10.84
2019-03-15T11:17:56.508Z,10.79
2019-03-15T11:20:26.013Z,10.72
2019-03-15T11:22:55.578Z,10.68
2019-03-15T11:25:25.094Z,10.68
2019-03-15T11:27:54.618Z,10.59
2019-03-15T11:30:24.151Z,10.66
2019-03-15T11:32:53.683Z,10.90
2019-03-15T11:35:23.229Z,11.12
2019-03-15T11:37:52.752Z,11.22
2019-03-15T11:40:23.055Z,11.22
2019-03-15T11:42:52.577Z,11.30
2019-03-15T11:45:22.073Z,11.30
2019-03-15T11:48:03.390Z,11.25
2019-03-15T11:50:22.822Z,11.27
2019-03-15T11:52:52.353Z,11.28
2019-03-15T11:55:21.866Z,11.35
2019-03-15T11:57:51.382Z,11.35
2019-03-15T12:00:20.964Z,11.28
2019-03-15T12:02:50.499Z,11.37
2019-03-15T12:05:20.026Z,11.36
2019-03-15T12:07:49.547Z,11.36
2019-03-15T12:10:19.139Z,11.43
2019-03-15T12:12:48.732Z,11.11
2019-03-15T12:15:18.384Z,11.18
2019-03-15T12:17:47.897Z,11.40
2019-03-15T12:20:17.419Z,11.66
2019-03-15T12:22:46.932Z,11.52
2019-03-15T12:25:16.453Z,11.79
2019-03-15T12:27:45.971Z,11.96
2019-03-15T12:30:15.593Z,12.07
2019-03-15T12:32:45.111Z,12.04
2019-03-15T12:35:14.686Z,12.21
2019-03-15T12:37:44.371Z,12.28
2019-03-15T12:40:14.086Z,12.50
2019-03-15T12:42:43.743Z,12.80
2019-03-15T12:45:13.339Z,13.32
2019-03-15T12:47:42.916Z,13.85
2019-03-15T12:50:12.973Z,14.21
2019-03-15T12:52:47.532Z,13.97
2019-03-15T12:55:14.023Z,13.73
2019-03-15T12:57:48.805Z,13.66
2019-03-15T13:00:16.641Z,13.54
2019-03-15T13:02:46.185Z,13.67
2019-03-15T13:05:15.694Z,13.64
2019-03-15T13:07:45.222Z,13.82
2019-03-15T13:10:14.823Z,13.76
2019-03-15T13:12:44.381Z,13.84
2019-03-15T13:15:13.975Z,13.47
2019-03-15T13:17:43.655Z,13.65
2019-03-15T13:20:13.440Z,13.28
2019-03-15T13:22:42.954Z,13.18
2019-03-15T13:25:12.638Z,13.39
2019-03-15T13:27:42.174Z,13.09
2019-03-15T13:30:11.770Z,13.40
2019-03-15T13:32:41.278Z,13.21
2019-03-15T13:35:11.081Z,13.01
2019-03-15T13:37:42.779Z,13.44
2019-03-15T13:40:11.824Z,13.58
2019-03-15T13:42:41.343Z,13.51
2019-03-15T13:45:11.963Z,13.65
2019-03-15T13:47:41.493Z,13.65
2019-03-15T13:50:11.700Z,13.77
2019-03-15T13:52:42.254Z,13.72
2019-03-15T13:55:12.133Z,13.78
2019-03-15T13:57:41.650Z,13.79
2019-03-15T14:00:12.433Z,13.75
2019-03-15T14:02:42.047Z,13.85
2019-03-15T14:05:11.648Z,13.44
2019-03-15T14:07:41.165Z,13.96
2019-03-15T14:10:10.907Z,13.81
2019-03-15T14:12:41.617Z,13.75
2019-03-15T14:15:11.527Z,13.88
2019-03-15T14:17:41.058Z,13.95
2019-03-15T14:20:10.618Z,14.20
2019-03-15T14:22:40.147Z,14.29
2019-03-15T14:25:10.820Z,13.91
2019-03-15T14:27:40.344Z,13.78
2019-03-15T14:30:11.053Z,13.48
2019-03-15T14:32:40.576Z,13.69
2019-03-15T14:35:10.180Z,13.68
2019-03-15T14:37:40.255Z,13.40
2019-03-15T14:40:10.617Z,13.61
2019-03-15T14:42:40.914Z,13.55
2019-03-15T14:45:11.501Z,13.60
2019-03-15T14:47:41.099Z,13.60
2019-03-15T14:50:10.720Z,13.27
2019-03-15T14:52:40.327Z,13.10
2019-03-15T14:55:10.063Z,12.78
2019-03-15T14:57:51.152Z,12.87
2019-03-15T15:00:12.275Z,12.60
2019-03-15T15:02:41.856Z,12.60
2019-03-15T15:05:11.739Z,12.63
2019-03-15T15:07:41.259Z,12.83
2019-03-15T15:10:11.200Z,12.49
2019-03-15T15:12:40.702Z,12.66
2019-03-15T15:15:11.669Z,12.79
2019-03-15T15:17:41.453Z,12.46
2019-03-15T15:20:10.979Z,12.73
2019-03-15T15:22:40.736Z,12.45
2019-03-15T15:25:11.349Z,12.63
2019-03-15T15:27:40.884Z,12.68
2019-03-15T15:30:11.413Z,12.58
2019-03-15T15:32:41.030Z,12.96
2019-03-15T15:35:11.146Z,12.91
2019-03-15T15:37:41.649Z,12.93
2019-03-15T15:40:11.780Z,12.98
2019-03-15T15:42:41.281Z,12.93
2019-03-15T15:45:11.112Z,12.97
2019-03-15T15:47:40.649Z,12.82
2019-03-15T15:50:10.200Z,12.87
2019-03-15T15:52:39.733Z,12.93
2019-03-15T15:55:09.415Z,12.66
2019-03-15T15:57:39.136Z,12.87
2019-03-15T16:00:10.315Z,12.95
2019-03-15T16:02:39.839Z,13.11
2019-03-15T16:05:09.657Z,12.64
2019-03-15T16:07:39.179Z,12.99
2019-03-15T16:10:09.927Z,12.93
2019-03-15T16:12:39.539Z,12.85
2019-03-15T16:15:10.108Z,13.02
2019-03-15T16:17:39.736Z,13.01
2019-03-15T16:20:09.546Z,13.11
2019-03-15T16:22:39.141Z,12.95
2019-03-15T16:25:08.712Z,13.07
2019-03-15T16:27:38.301Z,13.02
2019-03-15T16:30:09.939Z,13.13
2019-03-15T16:32:39.527Z,12.98
2019-03-15T16:35:10.469Z,12.66
2019-03-15T16:37:40.002Z,12.48
2019-03-15T16:40:09.730Z,12.20
2019-03-15T16:42:39.316Z,12.55
2019-03-15T16:45:11.253Z,12.42
2019-03-15T16:47:40.769Z,12.58
2019-03-15T16:50:10.989Z,12.69
2019-03-15T16:52:40.522Z,12.77
2019-03-15T16:55:10.444Z,12.37
2019-03-15T16:57:40.127Z,12.17
2019-03-15T17:00:11.466Z,12.39
2019-03-15T17:02:41.063Z,12.20
2019-03-15T17:05:10.742Z,12.47
2019-03-15T17:07:40.315Z,12.40
2019-03-15T17:10:10.236Z,12.38
2019-03-15T17:12:39.852Z,12.23
2019-03-15T17:15:10.897Z,11.96
2019-03-15T17:17:40.459Z,11.63
2019-03-15T17:20:11.002Z,11.79
2019-03-15T17:22:40.617Z,11.67
2019-03-15T17:25:10.634Z,11.72
2019-03-15T17:27:40.246Z,11.71
2019-03-15T17:30:11.371Z,11.50
2019-03-15T17:32:40.920Z,11.59
2019-03-15T17:35:11.756Z,11.50
2019-03-15T17:37:41.506Z,11.34
2019-03-15T17:40:12.258Z,11.27
2019-03-15T17:42:41.884Z,11.61
2019-03-15T17:45:11.471Z,11.74
2019-03-15T17:47:40.999Z,11.47
2019-03-15T17:50:13.167Z,11.57
2019-03-15T17:52:43.343Z,11.72
2019-03-15T17:55:12.944Z,11.88
2019-03-15T17:57:45.383Z,11.97
2019-03-15T18:00:18.566Z,12.21
2019-03-15T18:02:48.168Z,11.76
2019-03-15T18:05:17.691Z,11.45
2019-03-15T18:07:47.209Z,11.35
2019-03-15T18:10:16.798Z,11.54
2019-03-15T18:12:46.385Z,11.21
2019-03-15T18:15:15.888Z,11.38
2019-03-15T18:17:45.540Z,11.38
2019-03-15T18:20:15.123Z,11.20
2019-03-15T18:22:45.682Z,11.13
2019-03-15T18:25:16.043Z,10.98
2019-03-15T18:27:45.832Z,11.00
2019-03-15T18:30:15.538Z,10.73
2019-03-15T18:32:45.137Z,11.06
2019-03-15T18:35:14.756Z,11.09
2019-03-15T18:37:44.353Z,10.79
2019-03-15T18:40:14.034Z,11.21
2019-03-15T18:42:43.723Z,10.99
2019-03-15T18:45:13.358Z,11.18
2019-03-15T18:47:43.057Z,11.24
2019-03-15T18:50:15.296Z,11.15
2019-03-15T18:52:44.855Z,11.16
2019-03-15T18:55:14.507Z,10.90
2019-03-15T18:57:44.052Z,10.94
2019-03-15T19:00:16.720Z,11.04
2019-03-15T19:02:46.611Z,10.59
2019-03-15T19:05:16.200Z,10.76
2019-03-15T19:07:45.749Z,10.85
2019-03-15T19:10:15.345Z,10.96
2019-03-15T19:12:45.033Z,10.72
2019-03-15T19:15:14.741Z,10.61
2019-03-15T19:17:44.332Z,10.64
2019-03-15T19:20:13.942Z,10.76
2019-03-15T19:22:43.550Z,10.82
2019-03-15T19:25:13.157Z,10.89
2019-03-15T19:27:42.718Z,10.66
2019-03-15T19:30:12.780Z,10.78
2019-03-15T19:32:42.336Z,10.55
2019-03-15T19:35:11.879Z,10.37
2019-03-15T19:37:42.476Z,10.17
2019-03-15T19:40:12.565Z,10.32
2019-03-15T19:42:44.893Z,10.34
2019-03-15T19:45:13.514Z,10.50
2019-03-15T19:47:43.106Z,10.41
2019-03-15T19:50:13.795Z,10.41
2019-03-15T19:52:43.341Z,10.36
2019-03-15T19:55:12.989Z,10.47
2019-03-15T19:57:42.754Z,10.10
2019-03-15T20:00:14.333Z,10.25
2019-03-15T20:02:43.925Z,10.35
2019-03-15T20:05:13.520Z,10.20
2019-03-15T20:07:43.138Z,10.37
2019-03-15T20:10:16.197Z,10.29
2019-03-15T20:12:44.460Z,10.52
2019-03-15T20:15:14.726Z,10.45
2019-03-15T20:17:44.352Z,10.42
2019-03-15T20:20:13.983Z,10.34
2019-03-15T20:22:43.537Z,10.19
2019-03-15T20:25:13.074Z,10.47
2019-03-15T20:27:42.689Z,10.46
2019-03-15T20:30:21.961Z,10.34
2019-03-15T20:32:47.214Z,10.26
2019-03-15T20:35:16.739Z,10.42
2019-03-15T20:37:46.281Z,10.62
2019-03-15T20:40:15.963Z,10.58
2019-03-15T20:42:45.472Z,10.37
2019-03-15T20:45:15.338Z,10.39
2019-03-15T20:47:44.928Z,10.40
2019-03-15T20:50:14.550Z,10.42
2019-03-15T20:52:44.171Z,10.32
2019-03-15T20:55:13.699Z,10.33
2019-03-15T20:57:43.346Z,10.39
2019-03-15T21:00:14.046Z,10.32
2019-03-15T21:02:43.574Z,10.14
2019-03-15T21:05:13.248Z,10.01
2019-03-15T21:07:43.793Z,10.07
2019-03-15T21:10:13.908Z,10.15
2019-03-15T21:12:44.277Z,9.65
2019-03-15T21:15:14.420Z,10.05
2019-03-15T21:17:44.177Z,10.13
2019-03-15T21:20:14.078Z,10.06
2019-03-15T21:22:43.635Z,9.94
2019-03-15T21:25:13.192Z,10.22
2019-03-15T21:27:53.019Z,10.10
2019-03-15T21:30:15.066Z,10.18
2019-03-15T21:32:44.582Z,10.05
2019-03-15T21:35:14.243Z,10.09
2019-03-15T21:37:43.755Z,10.11
2019-03-15T21:40:13.477Z,10.05
2019-03-15T21:42:42.997Z,10.00
2019-03-15T21:45:12.860Z,9.98
2019-03-15T21:47:42.340Z,9.89
2019-03-15T21:50:12.283Z,9.98
2019-03-15T21:52:41.803Z,10.10
2019-03-15T21:55:11.399Z,9.90
2019-03-15T21:57:40.903Z,9.71
2019-03-15T22:00:11.992Z,9.88
2019-03-15T22:02:41.505Z,9.75
2019-03-15T22:05:11.089Z,9.58
2019-03-15T22:07:40.603Z,9.69
2019-03-15T22:10:10.542Z,9.75
2019-03-15T22:12:40.043Z,9.72
2019-03-15T22:15:09.867Z,9.70
2019-03-15T22:17:39.556Z,9.63
2019-03-15T22:20:09.690Z,9.78
2019-03-15T22:22:39.201Z,9.70
2019-03-15T22:25:08.796Z,9.66
2019-03-15T22:27:38.365Z,9.77
2019-03-15T22:30:08.117Z,9.97
2019-03-15T22:32:37.628Z,10.06
2019-03-15T22:35:07.368Z,9.93
2019-03-15T22:37:36.942Z,10.02
2019-03-15T22:40:06.609Z,9.90
2019-03-15T22:42:36.151Z,10.03
2019-03-15T22:45:06.482Z,10.10
2019-03-15T22:47:35.997Z,10.17
2019-03-15T22:50:06.801Z,9.79
2019-03-15T22:52:36.315Z,10.03
2019-03-15T22:55:06.320Z,10.17
2019-03-15T22:57:35.851Z,10.03
2019-03-15T23:00:07.590Z,10.05
2019-03-15T23:02:38.788Z,9.98
2019-03-15T23:05:08.412Z,9.80
2019-03-15T23:07:38.007Z,9.87
2019-03-15T23:10:08.549Z,9.94
2019-03-15T23:12:38.247Z,9.97
2019-03-15T23:15:07.806Z,9.55
2019-03-15T23:17:37.316Z,9.70
2019-03-15T23:20:07.260Z,9.84
2019-03-15T23:22:36.757Z,9.71
2019-03-15T23:25:06.536Z,9.72
2019-03-15T23:27:36.233Z,9.70
2019-03-15T23:30:05.921Z,9.49
2019-03-15T23:32:35.441Z,9.33
2019-03-15T23:35:05.261Z,9.38
2019-03-15T23:37:34.845Z,9.28
2019-03-15T23:40:04.877Z,9.51
2019-03-15T23:42:34.436Z,9.37
2019-03-15T23:45:04.211Z,9.19
2019-03-15T23:47:33.743Z,9.29
2019-03-15T23:50:03.444Z,9.47
2019-03-15T23:52:32.994Z,9.58
2019-03-15T23:55:02.505Z,9.70
2019-03-15T23:57:32.162Z,9.68
